Time;durP1;ratioP1;P1;durP2;ratioP2;P2;SDS_P1;SDS_P2;PMS_P1;PMS_P2;Temp;Humidity;BMP_temperature;BMP_pressure;BME280_temperature;BME280_humidity;BME280_pressure;Samples;Min_cycle;Max_cycle;Signal;HPM_P1;HPM_P2
2023/04/06 00:02:02;;;;;;;8.80;4.00;;;;;;;;;;5098621;28;20293;-64
2023/04/06 00:04:30;;;;;;;4.80;4.30;;;;;;;;;;5098489;28;20706;-64
2023/04/06 00:06:58;;;;;;;6.53;4.17;;;;;;;;;;5098424;28;21022;-64
2023/04/06 00:09:27;;;;;;;8.37;4.50;;;;;;;;;;5098596;28;20362;-64
2023/04/06 00:11:56;;;;;;;6.67;5.33;;;;;;;;;;5098336;28;20212;-64
2023/04/06 00:14:24;;;;;;;5.80;4.47;;;;;;;;;;5098029;28;20237;-64
2023/04/06 00:16:52;;;;;;;8.93;4.90;;;;;;;;;;5098336;28;20205;-64
2023/04/06 00:19:20;;;;;;;9.57;4.57;;;;;;;;;;5098348;28;20260;-64
2023/04/06 00:21:48;;;;;;;5.37;3.87;;;;;;;;;;5098402;28;20210;-64
2023/04/06 00:24:16;;;;;;;6.80;4.20;;;;;;;;;;5098474;28;20249;-64
2023/04/06 00:26:45;;;;;;;8.40;4.67;;;;;;;;;;5098315;28;20206;-64
2023/04/06 00:29:13;;;;;;;6.07;4.77;;;;;;;;;;5098047;28;20202;-64
2023/04/06 00:31:41;;;;;;;6.13;4.43;;;;;;;;;;5098118;28;20208;-64
2023/04/06 00:34:10;;;;;;;5.87;4.93;;;;;;;;;;5098216;28;20206;-64
2023/04/06 00:36:38;;;;;;;5.40;3.90;;;;;;;;;;5098263;28;20212;-65
2023/04/06 00:39:06;;;;;;;8.70;4.93;;;;;;;;;;5097701;28;20233;-64
2023/04/06 00:41:34;;;;;;;7.80;4.53;;;;;;;;;;5096543;28;20610;-64
2023/04/06 00:44:04;;;;;;;6.13;4.90;;;;;;;;;;5097838;28;20216;-64
2023/04/06 00:46:32;;;;;;;4.80;4.10;;;;;;;;;;5097775;28;20213;-64
2023/04/06 00:49:00;;;;;;;5.70;4.97;;;;;;;;;;5094553;28;20193;-64
2023/04/06 00:51:28;;;;;;;5.60;4.80;;;;;;;;;;5097737;28;20267;-64
2023/04/06 00:53:56;;;;;;;8.13;5.23;;;;;;;;;;5094336;28;20203;-64
2023/04/06 00:56:26;;;;;;;6.17;4.77;;;;;;;;;;5097872;28;20209;-64
2023/04/06 00:58:54;;;;;;;7.17;4.87;;;;;;;;;;5101478;28;20201;-64
2023/04/06 01:01:24;;;;;;;9.30;5.10;;;;;;;;;;5101644;28;20366;-64
2023/04/06 01:03:52;;;;;;;8.07;5.07;;;;;;;;;;5102277;28;20224;-64
2023/04/06 01:06:20;;;;;;;7.03;3.97;;;;;;;;;;5102022;28;20285;-64
2023/04/06 01:08:48;;;;;;;9.53;4.90;;;;;;;;;;5101860;28;20280;-64
2023/04/06 01:11:16;;;;;;;9.50;5.20;;;;;;;;;;5102035;28;20294;-64
2023/04/06 01:13:44;;;;;;;9.40;5.30;;;;;;;;;;5101288;28;20233;-64
2023/04/06 01:16:12;;;;;;;198.80;116.67;;;;;;;;;;5101062;28;20248;-64
2023/04/06 01:18:42;;;;;;;14.03;10.83;;;;;;;;;;5101660;28;20205;-64
2023/04/06 01:21:15;;;;;;;9.13;5.77;;;;;;;;;;5101381;28;20248;-64
2023/04/06 01:23:46;;;;;;;9.50;5.20;;;;;;;;;;5101840;28;20205;-64
2023/04/06 01:26:14;;;;;;;6.10;4.70;;;;;;;;;;5101766;28;20209;-64
2023/04/06 01:28:42;;;;;;;6.23;5.20;;;;;;;;;;5101541;28;20223;-64
2023/04/06 01:31:10;;;;;;;7.97;5.10;;;;;;;;;;5101102;28;20217;-64
2023/04/06 01:33:38;;;;;;;8.00;4.83;;;;;;;;;;5101406;28;20684;-64
2023/04/06 01:36:06;;;;;;;7.20;4.97;;;;;;;;;;5101273;28;20288;-64
2023/04/06 01:38:34;;;;;;;10.63;5.13;;;;;;;;;;5101275;28;20288;-64
2023/04/06 01:41:04;;;;;;;9.90;5.00;;;;;;;;;;5099456;28;20225;-64
2023/04/06 01:43:32;;;;;;;6.57;4.83;;;;;;;;;;5100959;28;20334;-64
2023/04/06 01:46:00;;;;;;;6.50;5.10;;;;;;;;;;5101319;28;20240;-64
2023/04/06 01:48:28;;;;;;;6.50;4.97;;;;;;;;;;5101108;28;20216;-64
2023/04/06 01:50:56;;;;;;;6.23;5.00;;;;;;;;;;5101139;28;20283;-64
2023/04/06 01:53:24;;;;;;;9.23;5.13;;;;;;;;;;5101320;28;20205;-64
2023/04/06 01:55:52;;;;;;;7.43;5.27;;;;;;;;;;5100866;28;20209;-64
2023/04/06 01:58:22;;;;;;;7.77;5.30;;;;;;;;;;5100961;28;20225;-63
2023/04/06 02:00:50;;;;;;;5.83;4.70;;;;;;;;;;5100762;28;20335;-64
2023/04/06 02:03:18;;;;;;;6.37;5.33;;;;;;;;;;5101109;28;20227;-64
2023/04/06 02:05:46;;;;;;;7.33;5.57;;;;;;;;;;5100709;28;20263;-64
2023/04/06 02:08:14;;;;;;;6.53;5.37;;;;;;;;;;5100757;28;20213;-65
2023/04/06 02:10:42;;;;;;;5.27;4.70;;;;;;;;;;5100584;28;20229;-63
2023/04/06 02:13:10;;;;;;;6.13;5.13;;;;;;;;;;5100529;28;20230;-63
2023/04/06 02:15:40;;;;;;;7.57;5.00;;;;;;;;;;5100430;28;20256;-64
2023/04/06 02:18:08;;;;;;;8.20;5.40;;;;;;;;;;5100377;28;20209;-64
2023/04/06 02:20:36;;;;;;;6.97;4.73;;;;;;;;;;5100410;28;20799;-63
2023/04/06 02:23:04;;;;;;;5.57;4.67;;;;;;;;;;5100349;28;20255;-63
2023/04/06 02:25:32;;;;;;;5.07;4.63;;;;;;;;;;5100414;28;20205;-64
2023/04/06 02:28:00;;;;;;;5.20;4.10;;;;;;;;;;5099988;28;20298;-64
2023/04/06 02:30:28;;;;;;;5.27;4.73;;;;;;;;;;5100431;28;20249;-64
2023/04/06 02:32:58;;;;;;;8.30;5.03;;;;;;;;;;5100291;28;20232;-64
2023/04/06 02:35:26;;;;;;;5.20;4.50;;;;;;;;;;5100218;28;20308;-64
2023/04/06 02:37:54;;;;;;;7.33;4.63;;;;;;;;;;5100062;28;20206;-65
2023/04/06 02:40:22;;;;;;;8.43;4.80;;;;;;;;;;5099902;28;20312;-64
2023/04/06 02:42:50;;;;;;;6.17;4.90;;;;;;;;;;5098680;28;20237;-64
2023/04/06 02:45:18;;;;;;;7.47;4.73;;;;;;;;;;5100307;28;20209;-64
2023/04/06 02:47:46;;;;;;;6.57;4.70;;;;;;;;;;5100030;28;20209;-64
2023/04/06 02:50:16;;;;;;;5.53;4.43;;;;;;;;;;5099809;28;20278;-64
2023/04/06 02:52:44;;;;;;;6.13;4.70;;;;;;;;;;5100107;28;20208;-65
2023/04/06 02:55:12;;;;;;;9.63;5.77;;;;;;;;;;5099744;28;20288;-64
2023/04/06 02:57:40;;;;;;;8.77;5.13;;;;;;;;;;5099651;28;20673;-64
2023/04/06 03:00:08;;;;;;;7.63;4.67;;;;;;;;;;5100312;28;20268;-64
2023/04/06 03:02:36;;;;;;;6.27;4.80;;;;;;;;;;5100834;28;20311;-63
2023/04/06 03:05:05;;;;;;;7.20;5.20;;;;;;;;;;5100405;28;20210;-64
2023/04/06 03:07:34;;;;;;;8.30;5.37;;;;;;;;;;5099927;28;20579;-63
2023/04/06 03:10:03;;;;;;;9.07;6.07;;;;;;;;;;5099596;28;20268;-64
2023/04/06 03:12:31;;;;;;;7.30;6.10;;;;;;;;;;5099488;28;20244;-64
2023/04/06 03:14:59;;;;;;;10.80;6.37;;;;;;;;;;5099334;28;20280;-63
2023/04/06 03:17:27;;;;;;;11.60;6.97;;;;;;;;;;5099560;28;20454;-64
2023/04/06 03:19:55;;;;;;;13.90;7.07;;;;;;;;;;5098973;28;20222;-64
2023/04/06 03:22:23;;;;;;;11.80;7.33;;;;;;;;;;5099529;28;20230;-64
2023/04/06 03:24:52;;;;;;;10.37;6.23;;;;;;;;;;5099204;28;20561;-64
2023/04/06 03:27:20;;;;;;;16.47;14.60;;;;;;;;;;5099456;28;20444;-64
2023/04/06 03:29:48;;;;;;;15.73;8.47;;;;;;;;;;5098818;28;20217;-64
2023/04/06 03:32:16;;;;;;;8.60;6.07;;;;;;;;;;5099039;28;20205;-64
2023/04/06 03:34:44;;;;;;;9.73;6.17;;;;;;;;;;5099258;28;20216;-64
2023/04/06 03:37:12;;;;;;;6.50;5.87;;;;;;;;;;5098355;28;20210;-64
2023/04/06 03:39:40;;;;;;;7.53;5.93;;;;;;;;;;5097142;28;20460;-64
2023/04/06 03:42:10;;;;;;;6.90;5.43;;;;;;;;;;5096496;28;20483;-64
2023/04/06 03:44:38;;;;;;;6.33;5.30;;;;;;;;;;5094568;28;20865;-64
2023/04/06 03:47:06;;;;;;;7.23;5.53;;;;;;;;;;5097234;28;20562;-64
2023/04/06 03:49:34;;;;;;;7.90;5.30;;;;;;;;;;5096092;28;20497;-64
2023/04/06 03:52:02;;;;;;;6.73;5.60;;;;;;;;;;5097340;28;20443;-64
2023/04/06 03:54:30;;;;;;;7.43;5.63;;;;;;;;;;5096637;28;20431;-64
2023/04/06 03:56:58;;;;;;;7.80;5.17;;;;;;;;;;5098489;28;20436;-64
2023/04/06 03:59:28;;;;;;;8.67;5.53;;;;;;;;;;5098964;28;20460;-64
2023/04/06 04:01:56;;;;;;;6.20;5.00;;;;;;;;;;5096974;28;20479;-64
2023/04/06 04:04:24;;;;;;;8.37;5.10;;;;;;;;;;5096306;28;20924;-64
2023/04/06 04:06:52;;;;;;;8.13;4.70;;;;;;;;;;5082575;28;20805;-64
2023/04/06 04:09:20;;;;;;;5.97;4.83;;;;;;;;;;5076612;28;20530;-64
2023/04/06 04:11:48;;;;;;;7.10;5.10;;;;;;;;;;5078089;28;20436;-64
2023/04/06 04:14:16;;;;;;;8.00;5.03;;;;;;;;;;5077380;28;20507;-64
2023/04/06 04:16:46;;;;;;;6.53;4.97;;;;;;;;;;5077725;28;20440;-64
2023/04/06 04:19:14;;;;;;;6.20;4.80;;;;;;;;;;5077818;28;20445;-64
2023/04/06 04:21:45;;;;;;;5.97;4.77;;;;;;;;;;5077661;28;21073;-64
2023/04/06 04:24:13;;;;;;;8.43;5.43;;;;;;;;;;5077882;28;20452;-64
2023/04/06 04:26:41;;;;;;;8.63;5.27;;;;;;;;;;5077885;28;20455;-64
2023/04/06 04:29:09;;;;;;;12.63;6.27;;;;;;;;;;5077782;28;20444;-63
2023/04/06 04:31:37;;;;;;;9.67;6.13;;;;;;;;;;5096223;28;20439;-63
2023/04/06 04:34:07;;;;;;;10.27;7.00;;;;;;;;;;5097952;28;20447;-64
2023/04/06 04:36:35;;;;;;;9.67;6.97;;;;;;;;;;5098099;28;20486;-64
2023/04/06 04:39:03;;;;;;;9.47;6.73;;;;;;;;;;5097965;28;20447;-64
2023/04/06 04:41:31;;;;;;;13.00;7.43;;;;;;;;;;5096179;28;20559;-64
2023/04/06 04:43:59;;;;;;;10.00;6.37;;;;;;;;;;5097563;28;20804;-64
2023/04/06 04:46:27;;;;;;;7.67;6.00;;;;;;;;;;5097979;28;20447;-64
2023/04/06 04:48:56;;;;;;;12.53;6.03;;;;;;;;;;5097997;28;20475;-64
2023/04/06 04:51:25;;;;;;;11.00;5.90;;;;;;;;;;5098080;28;20486;-63
2023/04/06 04:53:53;;;;;;;8.40;6.17;;;;;;;;;;5097776;28;20522;-64
2023/04/06 04:56:21;;;;;;;8.90;6.73;;;;;;;;;;5097727;28;20443;-64
2023/04/06 04:58:49;;;;;;;9.67;6.33;;;;;;;;;;5097719;28;20443;-64
2023/04/06 05:01:17;;;;;;;8.40;6.47;;;;;;;;;;5097566;28;20498;-64
2023/04/06 05:03:45;;;;;;;8.10;6.33;;;;;;;;;;5096290;28;20494;-64
2023/04/06 05:06:14;;;;;;;11.73;6.00;;;;;;;;;;5094507;28;20446;-64
2023/04/06 05:08:43;;;;;;;8.63;6.40;;;;;;;;;;5096302;28;20463;-64
2023/04/06 05:11:11;;;;;;;12.30;6.37;;;;;;;;;;5095710;28;20889;-64
2023/04/06 05:13:40;;;;;;;8.93;6.57;;;;;;;;;;5094899;28;20557;-64
2023/04/06 05:16:08;;;;;;;8.60;6.43;;;;;;;;;;5091847;28;20546;-64
2023/04/06 05:18:36;;;;;;;11.20;5.43;;;;;;;;;;5094707;28;20996;-64
2023/04/06 05:21:04;;;;;;;10.33;6.53;;;;;;;;;;5096216;28;20487;-64
2023/04/06 05:23:32;;;;;;;6.67;5.80;;;;;;;;;;5090382;28;20486;-63
2023/04/06 05:26:01;;;;;;;8.10;6.17;;;;;;;;;;5077653;28;20447;-63
2023/04/06 05:28:30;;;;;;;9.50;5.43;;;;;;;;;;5077181;28;20449;-64
2023/04/06 05:30:58;;;;;;;9.60;6.30;;;;;;;;;;5090875;28;20483;-63
2023/04/06 05:33:26;;;;;;;11.03;6.63;;;;;;;;;;5097404;28;20467;-64
2023/04/06 05:35:54;;;;;;;10.80;6.10;;;;;;;;;;5097350;28;20511;-64
2023/04/06 05:38:22;;;;;;;7.60;5.97;;;;;;;;;;5097584;28;20470;-63
2023/04/06 05:40:50;;;;;;;8.83;6.40;;;;;;;;;;5095491;28;21062;-63
2023/04/06 05:43:20;;;;;;;9.60;6.23;;;;;;;;;;5098204;28;20479;-65
2023/04/06 05:45:49;;;;;;;10.03;6.17;;;;;;;;;;5100785;28;20949;-65
2023/04/06 05:48:18;;;;;;;10.40;5.97;;;;;;;;;;5105840;28;20440;-65
2023/04/06 05:50:49;;;;;;;8.33;6.00;;;;;;;;;;5102412;28;20456;-65
2023/04/06 05:53:17;;;;;;;8.53;6.10;;;;;;;;;;5110385;28;20435;-64
2023/04/06 05:55:45;;;;;;;10.10;6.33;;;;;;;;;;5112430;28;20433;-65
2023/04/06 05:58:13;;;;;;;8.63;6.10;;;;;;;;;;5098981;28;20455;-65
2023/04/06 06:00:45;;;;;;;7.80;6.40;;;;;;;;;;5099147;28;20458;-65
2023/04/06 06:03:14;;;;;;;11.03;6.67;;;;;;;;;;5096101;28;20482;-65
2023/04/06 06:05:43;;;;;;;8.17;6.50;;;;;;;;;;5100679;28;20958;-65
2023/04/06 06:08:11;;;;;;;7.33;5.80;;;;;;;;;;5100938;28;20458;-65
2023/04/06 06:10:40;;;;;;;8.10;6.43;;;;;;;;;;5100563;28;20463;-65
2023/04/06 06:13:08;;;;;;;10.00;6.50;;;;;;;;;;5100472;28;20449;-65
2023/04/06 06:15:36;;;;;;;8.80;6.60;;;;;;;;;;5090629;28;20561;-65
2023/04/06 06:18:05;;;;;;;10.30;6.20;;;;;;;;;;5100253;28;20443;-65
2023/04/06 06:20:34;;;;;;;10.50;6.30;;;;;;;;;;5100510;28;20564;-65
2023/04/06 06:23:02;;;;;;;10.03;7.13;;;;;;;;;;5100125;28;20483;-65
2023/04/06 06:25:31;;;;;;;9.07;6.60;;;;;;;;;;5100364;28;20471;-65
2023/04/06 06:27:59;;;;;;;11.33;6.73;;;;;;;;;;5099978;28;21004;-65
2023/04/06 06:30:27;;;;;;;13.50;6.57;;;;;;;;;;5100998;28;20981;-65
2023/04/06 06:32:55;;;;;;;8.37;6.30;;;;;;;;;;5099147;28;20444;-65
2023/04/06 06:35:25;;;;;;;9.03;6.13;;;;;;;;;;5100483;28;20444;-65
2023/04/06 06:37:54;;;;;;;9.83;6.40;;;;;;;;;;5100327;28;20516;-65
2023/04/06 06:40:23;;;;;;;13.57;7.10;;;;;;;;;;5100105;28;20463;-65
2023/04/06 06:42:52;;;;;;;14.43;7.63;;;;;;;;;;5098560;28;20902;-65
2023/04/06 06:45:20;;;;;;;11.57;7.33;;;;;;;;;;5100272;28;20450;-65
2023/04/06 06:47:48;;;;;;;9.40;6.73;;;;;;;;;;5097927;28;20472;-65
2023/04/06 06:50:18;;;;;;;10.03;7.17;;;;;;;;;;5093068;28;20970;-65
2023/04/06 06:52:48;;;;;;;13.97;7.47;;;;;;;;;;5090720;28;20446;-65
2023/04/06 06:55:18;;;;;;;9.80;7.97;;;;;;;;;;5098702;28;20494;-65
2023/04/06 06:57:47;;;;;;;12.13;7.23;;;;;;;;;;5099450;28;20509;-65
2023/04/06 07:00:16;;;;;;;11.00;8.67;;;;;;;;;;5099537;28;20464;-65
2023/04/06 07:02:48;;;;;;;10.27;8.33;;;;;;;;;;5099338;28;20457;-65
2023/04/06 07:05:16;;;;;;;12.67;7.83;;;;;;;;;;5096303;28;20503;-65
2023/04/06 07:07:56;;;;;;;12.27;6.93;;;;;;;;;;5099811;28;20469;-65
2023/04/06 07:10:25;;;;;;;12.63;6.40;;;;;;;;;;5099589;28;20464;-65
2023/04/06 07:12:53;;;;;;;13.60;7.10;;;;;;;;;;5099462;28;20474;-65
2023/04/06 07:15:21;;;;;;;15.93;7.50;;;;;;;;;;5104525;28;21034;-65
2023/04/06 07:17:50;;;;;;;10.90;6.33;;;;;;;;;;5105918;28;20435;-64
2023/04/06 07:20:18;;;;;;;9.97;7.50;;;;;;;;;;5102423;28;20232;-65
2023/04/06 07:22:46;;;;;;;10.73;6.63;;;;;;;;;;5089219;28;20618;-64
2023/04/06 07:25:15;;;;;;;12.03;7.60;;;;;;;;;;5099004;28;20660;-65
2023/04/06 07:27:44;;;;;;;9.43;7.63;;;;;;;;;;5098805;28;20293;-64
2023/04/06 07:30:13;;;;;;;8.17;6.63;;;;;;;;;;5099373;28;20228;-65
2023/04/06 07:32:41;;;;;;;13.30;7.40;;;;;;;;;;5099057;28;20210;-65
2023/04/06 07:35:09;;;;;;;11.13;7.33;;;;;;;;;;5099020;28;20197;-65
2023/04/06 07:37:37;;;;;;;13.70;7.27;;;;;;;;;;5098967;28;20334;-64
2023/04/06 07:40:06;;;;;;;13.83;7.07;;;;;;;;;;5096555;28;20218;-65
2023/04/06 07:42:35;;;;;;;12.20;7.83;;;;;;;;;;5101763;28;20204;-65
2023/04/06 07:45:04;;;;;;;14.40;6.73;;;;;;;;;;5104976;27;20564;-64
2023/04/06 07:47:32;;;;;;;12.70;6.90;;;;;;;;;;5105954;28;20240;-65
2023/04/06 07:50:00;;;;;;;10.27;7.70;;;;;;;;;;5078382;28;20589;-65
2023/04/06 07:52:28;;;;;;;9.83;6.73;;;;;;;;;;5082753;28;20571;-65
2023/04/06 07:54:56;;;;;;;8.70;6.87;;;;;;;;;;5098550;28;20201;-64
2023/04/06 07:57:24;;;;;;;13.00;7.37;;;;;;;;;;5088278;28;20209;-64
2023/04/06 07:59:54;;;;;;;11.87;7.63;;;;;;;;;;5098489;28;20730;-64
2023/04/06 08:02:22;;;;;;;13.43;8.20;;;;;;;;;;5098531;28;20599;-64
2023/04/06 08:04:50;;;;;;;11.23;7.73;;;;;;;;;;5098365;28;20247;-64
2023/04/06 08:07:18;;;;;;;14.80;8.33;;;;;;;;;;5084865;28;20574;-64
2023/04/06 08:09:47;;;;;;;10.07;7.80;;;;;;;;;;5098563;28;20225;-64
2023/04/06 08:12:15;;;;;;;14.27;8.47;;;;;;;;;;5098795;28;20288;-64
2023/04/06 08:14:43;;;;;;;10.37;7.33;;;;;;;;;;5095064;28;20847;-64
2023/04/06 08:17:13;;;;;;;9.07;6.93;;;;;;;;;;5098380;28;20233;-64
2023/04/06 08:19:43;;;;;;;7.40;6.57;;;;;;;;;;5098085;28;20625;-64
2023/04/06 08:22:11;;;;;;;14.10;7.07;;;;;;;;;;5098509;28;20211;-64
2023/04/06 08:24:39;;;;;;;10.77;7.63;;;;;;;;;;5098178;28;20229;-64
2023/04/06 08:27:08;;;;;;;11.03;7.53;;;;;;;;;;5098307;28;20288;-64
2023/04/06 08:29:36;;;;;;;10.40;7.27;;;;;;;;;;5097472;28;20260;-65
2023/04/06 08:32:06;;;;;;;14.47;7.37;;;;;;;;;;5087642;28;20205;-64
2023/04/06 08:34:35;;;;;;;8.93;7.17;;;;;;;;;;5098444;28;20296;-64
2023/04/06 08:37:04;;;;;;;9.23;6.97;;;;;;;;;;5098777;28;20205;-64
2023/04/06 08:39:33;;;;;;;11.47;6.30;;;;;;;;;;5098136;28;20696;-62
2023/04/06 08:42:02;;;;;;;10.07;6.93;;;;;;;;;;5096342;28;20198;-65
2023/04/06 08:44:32;;;;;;;15.23;7.63;;;;;;;;;;5097677;28;20256;-65
2023/04/06 08:47:01;;;;;;;7.60;6.90;;;;;;;;;;5094655;28;20727;-65
2023/04/06 08:49:29;;;;;;;12.20;7.10;;;;;;;;;;5097035;28;20232;-65
2023/04/06 08:52:00;;;;;;;8.93;6.80;;;;;;;;;;5088922;28;20243;-65
2023/04/06 08:54:28;;;;;;;11.03;6.60;;;;;;;;;;5084628;28;20205;-65
2023/04/06 08:56:56;;;;;;;10.87;6.83;;;;;;;;;;5101396;28;20201;-64
2023/04/06 08:59:24;;;;;;;10.77;6.80;;;;;;;;;;5092533;28;20712;-65
2023/04/06 09:01:54;;;;;;;10.90;7.57;;;;;;;;;;5087159;28;20302;-66
2023/04/06 09:04:22;;;;;;;8.73;7.13;;;;;;;;;;5085790;28;20210;-68
2023/04/06 09:06:50;;;;;;;13.10;6.83;;;;;;;;;;5085990;28;20205;-65
2023/04/06 09:09:20;;;;;;;10.07;7.00;;;;;;;;;;5098098;28;20723;-65
2023/04/06 09:11:52;;;;;;;14.37;7.13;;;;;;;;;;5101261;28;20252;-65
2023/04/06 09:14:34;;;;;;;8.80;5.97;;;;;;;;;;5104607;28;20253;-65
2023/04/06 09:17:02;;;;;;;10.93;6.60;;;;;;;;;;5100224;28;20204;-65
2023/04/06 09:19:30;;;;;;;9.20;5.60;;;;;;;;;;5103594;28;20221;-65
2023/04/06 09:22:06;;;;;;;7.83;6.00;;;;;;;;;;5095839;28;20259;-65
2023/04/06 09:24:43;;;;;;;7.90;6.47;;;;;;;;;;5101717;28;20224;-65
2023/04/06 09:27:11;;;;;;;10.60;6.20;;;;;;;;;;5101497;28;20232;-65
2023/04/06 09:29:39;;;;;;;10.37;5.70;;;;;;;;;;5101286;28;20716;-65
2023/04/06 09:32:07;;;;;;;8.17;5.27;;;;;;;;;;5101592;28;20245;-65
2023/04/06 09:34:35;;;;;;;7.10;5.50;;;;;;;;;;5101310;28;20255;-65
2023/04/06 09:37:13;;;;;;;9.03;5.90;;;;;;;;;;5101390;28;20240;-65
2023/04/06 09:39:41;;;;;;;8.17;6.17;;;;;;;;;;5090175;28;20213;-65
2023/04/06 09:42:11;;;;;;;7.03;5.53;;;;;;;;;;5100648;28;20201;-65
2023/04/06 09:44:39;;;;;;;10.73;5.40;;;;;;;;;;5081841;28;20229;-65
2023/04/06 09:47:07;;;;;;;9.93;5.40;;;;;;;;;;5080842;28;20206;-65
2023/04/06 09:49:36;;;;;;;6.37;4.70;;;;;;;;;;5080793;28;20287;-65
2023/04/06 09:52:04;;;;;;;6.70;4.80;;;;;;;;;;5085451;28;20372;-66
2023/04/06 09:54:33;;;;;;;8.03;5.30;;;;;;;;;;5101159;28;20206;-65
2023/04/06 09:57:04;;;;;;;6.63;4.77;;;;;;;;;;5100587;28;20293;-64
2023/04/06 09:59:39;;;;;;;9.17;5.20;;;;;;;;;;5100964;28;20312;-65
2023/04/06 10:02:09;;;;;;;7.70;6.03;;;;;;;;;;5100688;28;20690;-65
2023/04/06 10:04:38;;;;;;;6.83;5.00;;;;;;;;;;5091400;28;20308;-65
2023/04/06 10:07:07;;;;;;;8.53;4.97;;;;;;;;;;5100708;28;20237;-64
2023/04/06 10:09:37;;;;;;;4.73;3.77;;;;;;;;;;5105111;28;20270;-64
2023/04/06 10:12:05;;;;;;;4.27;3.50;;;;;;;;;;5099722;28;20238;-64
2023/04/06 10:14:36;;;;;;;6.37;4.13;;;;;;;;;;5091326;28;20260;-64
2023/04/06 10:17:05;;;;;;;7.73;4.67;;;;;;;;;;5088108;28;20255;-63
2023/04/06 10:19:38;;;;;;;5.43;3.87;;;;;;;;;;5089037;28;20221;-64
2023/04/06 10:22:06;;;;;;;7.90;4.43;;;;;;;;;;5088929;28;20224;-63
2023/04/06 10:24:35;;;;;;;4.83;3.77;;;;;;;;;;5090516;28;20624;-63
2023/04/06 10:27:03;;;;;;;7.00;4.20;;;;;;;;;;5090271;28;20198;-64
2023/04/06 10:29:43;;;;;;;8.10;4.10;;;;;;;;;;5086357;28;20272;-63
2023/04/06 10:32:12;;;;;;;6.77;4.07;;;;;;;;;;5083603;28;20206;-63
2023/04/06 10:34:40;;;;;;;4.27;3.37;;;;;;;;;;5087982;28;20696;-62
2023/04/06 10:37:14;;;;;;;6.17;4.40;;;;;;;;;;5089380;28;20202;-59
2023/04/06 10:39:48;;;;;;;7.73;5.33;;;;;;;;;;5089339;28;20660;-60
2023/04/06 10:42:16;;;;;;;6.23;5.03;;;;;;;;;;5088848;28;20205;-60
2023/04/06 10:44:46;;;;;;;5.80;4.33;;;;;;;;;;5087494;28;20201;-62
2023/04/06 10:47:18;;;;;;;6.03;3.77;;;;;;;;;;5088127;28;20202;-62
2023/04/06 10:49:46;;;;;;;5.57;4.20;;;;;;;;;;5104597;28;20220;-62
2023/04/06 10:52:14;;;;;;;6.57;4.10;;;;;;;;;;5103077;28;20202;-62
2023/04/06 10:54:43;;;;;;;6.70;4.43;;;;;;;;;;5110315;28;20276;-62
2023/04/06 10:57:11;;;;;;;5.97;4.57;;;;;;;;;;5103700;28;20225;-62
2023/04/06 10:59:43;;;;;;;5.80;3.97;;;;;;;;;;5099636;28;20225;-62
2023/04/06 11:02:22;;;;;;;6.50;4.10;;;;;;;;;;5099685;28;20244;-62
2023/04/06 11:04:57;;;;;;;9.40;4.37;;;;;;;;;;5099535;28;20274;-62
2023/04/06 11:07:26;;;;;;;6.17;3.57;;;;;;;;;;5099684;28;20232;-62
2023/04/06 11:09:54;;;;;;;5.10;4.10;;;;;;;;;;5083199;28;20228;-62
2023/04/06 11:12:42;;;;;;;6.90;4.33;;;;;;;;;;5099522;28;20213;-62
2023/04/06 11:15:11;;;;;;;7.77;4.60;;;;;;;;;;5100341;28;20574;-63
2023/04/06 11:17:40;;;;;;;9.00;4.13;;;;;;;;;;5105409;28;20193;-63
2023/04/06 11:20:11;;;;;;;6.27;3.90;;;;;;;;;;5107043;28;20270;-63
2023/04/06 11:22:49;;;;;;;9.07;3.97;;;;;;;;;;5109119;28;20193;-63
2023/04/06 11:25:17;;;;;;;5.37;4.13;;;;;;;;;;5106178;28;20220;-62
2023/04/06 11:27:46;;;;;;;5.57;4.00;;;;;;;;;;5105356;28;20229;-62
2023/04/06 11:30:14;;;;;;;4.83;3.83;;;;;;;;;;5086811;28;20222;-62
2023/04/06 11:32:51;;;;;;;6.77;3.90;;;;;;;;;;5108860;28;20285;-62
2023/04/06 11:35:23;;;;;;;6.47;4.13;;;;;;;;;;5105269;28;20263;-62
2023/04/06 11:37:53;;;;;;;8.20;4.57;;;;;;;;;;5105643;28;20658;-62
2023/04/06 11:40:29;;;;;;;6.30;3.77;;;;;;;;;;5106081;28;20250;-62
2023/04/06 11:42:58;;;;;;;5.73;4.20;;;;;;;;;;5103311;28;20652;-62
2023/04/06 11:45:26;;;;;;;5.60;4.07;;;;;;;;;;5105147;28;20680;-63
2023/04/06 11:47:59;;;;;;;7.30;4.10;;;;;;;;;;5107217;28;20200;-63
2023/04/06 11:50:33;;;;;;;6.53;4.10;;;;;;;;;;5105399;28;20225;-64
2023/04/06 11:53:02;;;;;;;7.97;3.97;;;;;;;;;;5105662;28;20198;-63
2023/04/06 11:55:38;;;;;;;7.23;4.17;;;;;;;;;;5109444;28;20197;-64
2023/04/06 11:58:06;;;;;;;7.33;3.77;;;;;;;;;;5106620;28;20238;-64
2023/04/06 12:00:36;;;;;;;5.20;4.07;;;;;;;;;;5104160;28;20560;-63
2023/04/06 12:03:06;;;;;;;7.70;4.47;;;;;;;;;;5103801;28;20333;-64
2023/04/06 12:05:34;;;;;;;8.90;4.70;;;;;;;;;;5102761;28;20201;-64
2023/04/06 12:08:03;;;;;;;8.73;4.90;;;;;;;;;;5105123;28;20231;-64
2023/04/06 12:10:31;;;;;;;6.53;4.30;;;;;;;;;;5102227;28;20307;-64
2023/04/06 12:12:59;;;;;;;6.40;4.37;;;;;;;;;;5104699;28;20227;-64
2023/04/06 12:15:27;;;;;;;7.10;4.27;;;;;;;;;;5099646;28;20226;-71
2023/04/06 12:17:55;;;;;;;9.13;4.03;;;;;;;;;;5092222;28;20665;-63
2023/04/06 12:20:24;;;;;;;6.13;3.93;;;;;;;;;;5105070;28;20223;-63
2023/04/06 12:22:55;;;;;;;7.00;4.30;;;;;;;;;;5103955;28;20687;-62
2023/04/06 12:25:23;;;;;;;5.33;4.20;;;;;;;;;;5078183;28;20210;-63
2023/04/06 12:27:51;;;;;;;5.53;4.23;;;;;;;;;;5079486;28;20234;-62
2023/04/06 12:30:19;;;;;;;6.30;3.93;;;;;;;;;;5094648;28;20217;-63
2023/04/06 12:32:47;;;;;;;7.70;4.37;;;;;;;;;;5102073;28;20236;-63
2023/04/06 12:35:18;;;;;;;9.13;3.80;;;;;;;;;;5103713;28;20194;-63
2023/04/06 12:37:47;;;;;;;8.33;4.70;;;;;;;;;;5097903;28;20668;-63
2023/04/06 12:40:15;;;;;;;7.73;4.30;;;;;;;;;;5089931;28;20243;-62
2023/04/06 12:42:45;;;;;;;5.67;4.30;;;;;;;;;;5094308;28;20209;-62
2023/04/06 12:45:13;;;;;;;6.60;4.13;;;;;;;;;;5092681;28;20285;-62
2023/04/06 12:47:41;;;;;;;10.27;4.30;;;;;;;;;;5097738;28;20251;-63
2023/04/06 12:50:10;;;;;;;9.40;4.27;;;;;;;;;;5097742;28;20275;-65
2023/04/06 12:52:38;;;;;;;6.63;4.40;;;;;;;;;;5097270;28;20240;-64
2023/04/06 12:55:08;;;;;;;7.77;4.27;;;;;;;;;;5099072;28;20197;-65
2023/04/06 12:57:36;;;;;;;7.60;4.57;;;;;;;;;;5092173;28;20201;-65
2023/04/06 13:00:05;;;;;;;8.10;4.60;;;;;;;;;;5097774;28;20269;-65
2023/04/06 13:02:36;;;;;;;7.13;5.13;;;;;;;;;;5096205;28;20213;-67
2023/04/06 13:05:04;;;;;;;6.27;4.40;;;;;;;;;;5108213;28;20222;-67
2023/04/06 13:07:32;;;;;;;5.93;4.37;;;;;;;;;;5107401;28;20224;-67
2023/04/06 13:10:00;;;;;;;8.90;5.23;;;;;;;;;;5092581;28;20719;-67
2023/04/06 13:12:30;;;;;;;6.10;4.53;;;;;;;;;;5097059;28;20611;-68
2023/04/06 13:14:57;;;;;;;8.20;4.37;;;;;;;;;;5095626;28;20240;-68
2023/04/06 13:17:28;;;;;;;7.47;4.47;;;;;;;;;;5097302;28;20233;-68
2023/04/06 13:19:56;;;;;;;6.63;4.10;;;;;;;;;;5097513;28;20217;-67
2023/04/06 13:22:24;;;;;;;9.23;4.90;;;;;;;;;;5097388;28;20639;-67
2023/04/06 13:24:52;;;;;;;7.07;4.93;;;;;;;;;;5097307;28;20204;-67
2023/04/06 13:27:20;;;;;;;7.20;4.73;;;;;;;;;;5096896;28;20234;-67
2023/04/06 13:29:49;;;;;;;6.43;4.60;;;;;;;;;;5097463;28;20221;-67
2023/04/06 13:32:17;;;;;;;7.53;4.67;;;;;;;;;;5097393;28;20206;-67
2023/04/06 13:34:47;;;;;;;5.20;4.03;;;;;;;;;;5097469;28;20284;-67
2023/04/06 13:37:16;;;;;;;8.30;4.47;;;;;;;;;;5097149;28;20546;-66
2023/04/06 13:39:44;;;;;;;7.57;3.77;;;;;;;;;;5097083;28;20253;-67
2023/04/06 13:42:12;;;;;;;6.07;3.60;;;;;;;;;;5095191;28;20212;-67
2023/04/06 13:44:40;;;;;;;5.60;3.77;;;;;;;;;;5097343;28;20239;-67
2023/04/06 13:47:09;;;;;;;10.20;4.13;;;;;;;;;;5097089;28;20712;-67
2023/04/06 13:49:37;;;;;;;9.37;3.70;;;;;;;;;;5097426;28;20232;-67
2023/04/06 13:52:05;;;;;;;7.93;3.17;;;;;;;;;;5102010;28;20197;-66
2023/04/06 13:54:33;;;;;;;7.30;3.93;;;;;;;;;;5106153;28;20280;-66
2023/04/06 13:57:01;;;;;;;13.17;3.70;;;;;;;;;;5105354;28;20228;-66
2023/04/06 13:59:33;;;;;;;4.50;3.53;;;;;;;;;;5102948;28;20217;-66
2023/04/06 14:02:01;;;;;;;6.57;3.57;;;;;;;;;;5096970;28;20216;-66
2023/04/06 14:04:31;;;;;;;4.93;3.37;;;;;;;;;;5098398;28;20205;-66
2023/04/06 14:06:58;;;;;;;5.80;3.60;;;;;;;;;;5100875;28;20236;-65
2023/04/06 14:09:27;;;;;;;6.67;3.73;;;;;;;;;;5100868;28;20233;-66
2023/04/06 14:11:55;;;;;;;6.57;4.00;;;;;;;;;;5100982;28;20212;-66
2023/04/06 14:14:23;;;;;;;5.53;4.00;;;;;;;;;;5100595;28;20233;-64
2023/04/06 14:16:51;;;;;;;6.17;4.00;;;;;;;;;;5100408;28;20292;-65
2023/04/06 14:19:20;;;;;;;5.57;4.10;;;;;;;;;;5100734;28;20255;-65
2023/04/06 14:21:50;;;;;;;5.70;3.73;;;;;;;;;;5100429;28;20652;-66
2023/04/06 14:24:18;;;;;;;5.47;3.43;;;;;;;;;;5100410;28;20212;-65
2023/04/06 14:26:47;;;;;;;5.67;3.60;;;;;;;;;;5100229;28;20374;-66
2023/04/06 14:29:15;;;;;;;5.27;3.60;;;;;;;;;;5100009;28;20205;-66
2023/04/06 14:31:43;;;;;;;4.83;3.70;;;;;;;;;;5086565;28;20206;-65
2023/04/06 14:34:11;;;;;;;5.67;3.40;;;;;;;;;;5100526;28;20209;-65
2023/04/06 14:36:39;;;;;;;6.50;3.00;;;;;;;;;;5100530;28;20209;-65
2023/04/06 14:39:09;;;;;;;4.73;3.33;;;;;;;;;;5099972;28;20664;-65
2023/04/06 14:41:37;;;;;;;5.47;3.53;;;;;;;;;;5098598;28;20288;-64
2023/04/06 14:44:05;;;;;;;5.13;3.63;;;;;;;;;;5100028;28;20212;-66
2023/04/06 14:46:33;;;;;;;5.33;3.30;;;;;;;;;;5099939;28;20255;-66
2023/04/06 14:49:02;;;;;;;5.27;3.03;;;;;;;;;;5099832;28;20225;-65
2023/04/06 14:51:30;;;;;;;5.10;3.07;;;;;;;;;;5100232;28;20219;-66